sensor_id;sensor_type;location;lat;lon;timestamp;pressure;altitude;pressure_sealevel;temperature;humidity
62800;BME280;48842;51.046;13.796;2022-08-01T00:02:27;100078.88;;;26.08;41.43
62800;BME280;48842;51.046;13.796;2022-08-01T00:04:54;100079.84;;;26.07;41.61
62800;BME280;48842;51.046;13.796;2022-08-01T00:07:19;100074.56;;;26.06;41.70
62800;BME280;48842;51.046;13.796;2022-08-01T00:09:44;100072.09;;;26.03;41.63
62800;BME280;48842;51.046;13.796;2022-08-01T00:12:10;100069.50;;;26.01;41.93
62800;BME280;48842;51.046;13.796;2022-08-01T00:14:35;100064.22;;;26.00;41.79
62800;BME280;48842;51.046;13.796;2022-08-01T00:17:00;100064.31;;;25.98;41.80
62800;BME280;48842;51.046;13.796;2022-08-01T00:19:26;100062.56;;;25.97;41.89
62800;BME280;48842;51.046;13.796;2022-08-01T00:21:51;100053.88;;;25.93;41.97
62800;BME280;48842;51.046;13.796;2022-08-01T00:24:16;100054.81;;;25.92;41.83
62800;BME280;48842;51.046;13.796;2022-08-01T00:26:41;100053.09;;;25.91;41.81
62800;BME280;48842;51.046;13.796;2022-08-01T00:29:06;100052.34;;;25.89;42.22
62800;BME280;48842;51.046;13.796;2022-08-01T00:31:32;100055.97;;;25.88;42.09
62800;BME280;48842;51.046;13.796;2022-08-01T00:33:57;100045.44;;;25.85;42.49
62800;BME280;48842;51.046;13.796;2022-08-01T00:36:22;100052.75;;;25.83;42.48
62800;BME280;48842;51.046;13.796;2022-08-01T00:38:47;100051.97;;;25.81;42.75
62800;BME280;48842;51.046;13.796;2022-08-01T00:41:13;100056.59;;;25.79;42.53
62800;BME280;48842;51.046;13.796;2022-08-01T00:43:38;100051.50;;;25.74;42.36
62800;BME280;48842;51.046;13.796;2022-08-01T00:46:03;100062.31;;;25.73;42.38
62800;BME280;48842;51.046;13.796;2022-08-01T00:48:28;100060.72;;;25.70;42.92
62800;BME280;48842;51.046;13.796;2022-08-01T00:50:54;100061.75;;;25.68;42.67
62800;BME280;48842;51.046;13.796;2022-08-01T00:53:19;100059.28;;;25.65;42.77
62800;BME280;48842;51.046;13.796;2022-08-01T00:55:44;100058.50;;;25.63;43.02
62800;BME280;48842;51.046;13.796;2022-08-01T00:58:11;100067.72;;;25.58;43.08
62800;BME280;48842;51.046;13.796;2022-08-01T01:00:36;100060.81;;;25.54;43.04
62800;BME280;48842;51.046;13.796;2022-08-01T01:03:02;100061.03;;;25.51;43.28
62800;BME280;48842;51.046;13.796;2022-08-01T01:05:27;100054.97;;;25.48;43.36
62800;BME280;48842;51.046;13.796;2022-08-01T01:08:04;100055.16;;;25.44;43.61
62800;BME280;48842;51.046;13.796;2022-08-01T01:10:43;100050.94;;;25.40;43.72
62800;BME280;48842;51.046;13.796;2022-08-01T01:15:51;100050.59;;;25.32;44.04
62800;BME280;48842;51.046;13.796;2022-08-01T01:18:34;100054.38;;;25.28;44.02
62800;BME280;48842;51.046;13.796;2022-08-01T01:21:13;100056.47;;;25.23;44.16
62800;BME280;48842;51.046;13.796;2022-08-01T01:24:11;100065.66;;;25.19;44.41
62800;BME280;48842;51.046;13.796;2022-08-01T01:27:01;100060.47;;;25.16;44.68
62800;BME280;48842;51.046;13.796;2022-08-01T01:29:46;100053.78;;;25.08;45.08
62800;BME280;48842;51.046;13.796;2022-08-01T01:32:17;100049.69;;;25.03;45.32
62800;BME280;48842;51.046;13.796;2022-08-01T01:34:44;100046.22;;;25.01;45.42
62800;BME280;48842;51.046;13.796;2022-08-01T01:37:14;100045.47;;;24.99;45.94
62800;BME280;48842;51.046;13.796;2022-08-01T01:39:41;100046.50;;;24.96;45.89
62800;BME280;48842;51.046;13.796;2022-08-01T01:42:08;100043.13;;;24.92;46.02
62800;BME280;48842;51.046;13.796;2022-08-01T01:44:34;100037.84;;;24.91;46.32
62800;BME280;48842;51.046;13.796;2022-08-01T01:47:00;100038.06;;;24.88;46.37
62800;BME280;48842;51.046;13.796;2022-08-01T01:49:27;100040.81;;;24.86;46.27
62800;BME280;48842;51.046;13.796;2022-08-01T01:51:54;100036.53;;;24.84;46.44
62800;BME280;48842;51.046;13.796;2022-08-01T01:54:22;100036.69;;;24.81;46.44
62800;BME280;48842;51.046;13.796;2022-08-01T01:56:50;100032.31;;;24.80;46.44
62800;BME280;48842;51.046;13.796;2022-08-01T01:59:20;100033.34;;;24.77;46.55
62800;BME280;48842;51.046;13.796;2022-08-01T02:01:51;100033.53;;;24.74;46.73
62800;BME280;48842;51.046;13.796;2022-08-01T02:04:18;100036.31;;;24.72;46.70
62800;BME280;48842;51.046;13.796;2022-08-01T02:06:46;100032.00;;;24.70;46.42
62800;BME280;48842;51.046;13.796;2022-08-01T02:09:14;100042.81;;;24.68;46.55
62800;BME280;48842;51.046;13.796;2022-08-01T02:11:41;100034.00;;;24.66;46.70
62800;BME280;48842;51.046;13.796;2022-08-01T02:14:09;100039.28;;;24.68;46.90
62800;BME280;48842;51.046;13.796;2022-08-01T02:16:36;100035.81;;;24.66;47.33
62800;BME280;48842;51.046;13.796;2022-08-01T02:19:04;100034.97;;;24.65;47.30
62800;BME280;48842;51.046;13.796;2022-08-01T02:21:35;100039.44;;;24.65;47.58
62800;BME280;48842;51.046;13.796;2022-08-01T02:24:28;100036.00;;;24.63;47.63
62800;BME280;48842;51.046;13.796;2022-08-01T02:27:00;100036.84;;;24.63;47.50
62800;BME280;48842;51.046;13.796;2022-08-01T02:29:59;100039.63;;;24.62;47.74
62800;BME280;48842;51.046;13.796;2022-08-01T02:32:37;100045.84;;;24.62;47.46
62800;BME280;48842;51.046;13.796;2022-08-01T02:35:05;100052.06;;;24.63;47.41
62800;BME280;48842;51.046;13.796;2022-08-01T02:37:34;100047.66;;;24.62;47.48
62800;BME280;48842;51.046;13.796;2022-08-01T02:40:01;100051.22;;;24.62;47.33
62800;BME280;48842;51.046;13.796;2022-08-01T02:42:27;100062.78;;;24.63;47.45
62800;BME280;48842;51.046;13.796;2022-08-01T02:44:55;100062.78;;;24.63;47.18
62800;BME280;48842;51.046;13.796;2022-08-01T02:47:22;100068.03;;;24.64;47.39
62800;BME280;48842;51.046;13.796;2022-08-01T02:49:50;100066.31;;;24.63;47.05
62800;BME280;48842;51.046;13.796;2022-08-01T02:52:18;100062.78;;;24.63;47.13
62800;BME280;48842;51.046;13.796;2022-08-01T02:54:45;100053.81;;;24.64;47.36
62800;BME280;48842;51.046;13.796;2022-08-01T02:57:12;100048.44;;;24.64;47.37
62800;BME280;48842;51.046;13.796;2022-08-01T02:59:41;100051.97;;;24.64;47.43
62800;BME280;48842;51.046;13.796;2022-08-01T03:02:08;100059.16;;;24.64;47.43
62800;BME280;48842;51.046;13.796;2022-08-01T03:04:37;100061.84;;;24.64;48.13
62800;BME280;48842;51.046;13.796;2022-08-01T03:07:04;100047.56;;;24.63;48.42
62800;BME280;48842;51.046;13.796;2022-08-01T03:09:35;100051.22;;;24.62;48.42
62800;BME280;48842;51.046;13.796;2022-08-01T03:12:04;100062.88;;;24.61;47.90
62800;BME280;48842;51.046;13.796;2022-08-01T03:14:34;100057.59;;;24.60;47.72
62800;BME280;48842;51.046;13.796;2022-08-01T03:17:01;100062.97;;;24.60;47.59
62800;BME280;48842;51.046;13.796;2022-08-01T03:19:27;100067.47;;;24.59;47.49
62800;BME280;48842;51.046;13.796;2022-08-01T03:21:55;100068.31;;;24.60;47.48
62800;BME280;48842;51.046;13.796;2022-08-01T03:24:23;100071.00;;;24.60;47.57
62800;BME280;48842;51.046;13.796;2022-08-01T03:26:51;100067.38;;;24.61;47.52
62800;BME280;48842;51.046;13.796;2022-08-01T03:29:20;100068.31;;;24.60;47.40
62800;BME280;48842;51.046;13.796;2022-08-01T03:31:47;100073.69;;;24.60;47.49
62800;BME280;48842;51.046;13.796;2022-08-01T03:34:13;100067.47;;;24.59;47.59
62800;BME280;48842;51.046;13.796;2022-08-01T03:36:46;100065.72;;;24.58;47.36
62800;BME280;48842;51.046;13.796;2022-08-01T03:39:12;100070.22;;;24.57;47.66
62800;BME280;48842;51.046;13.796;2022-08-01T03:41:41;100066.75;;;24.55;47.44
62800;BME280;48842;51.046;13.796;2022-08-01T03:44:12;100071.25;;;24.55;47.34
62800;BME280;48842;51.046;13.796;2022-08-01T03:46:51;100069.50;;;24.54;47.37
62800;BME280;48842;51.046;13.796;2022-08-01T03:49:30;100076.78;;;24.52;47.59
62800;BME280;48842;51.046;13.796;2022-08-01T03:51:56;100068.84;;;24.50;47.54
62800;BME280;48842;51.046;13.796;2022-08-01T03:54:24;100063.59;;;24.49;47.35
62800;BME280;48842;51.046;13.796;2022-08-01T03:56:51;100065.38;;;24.48;47.40
62800;BME280;48842;51.046;13.796;2022-08-01T03:59:18;100068.06;;;24.48;47.60
62800;BME280;48842;51.046;13.796;2022-08-01T04:01:44;100071.69;;;24.47;47.40
62800;BME280;48842;51.046;13.796;2022-08-01T04:04:10;100068.06;;;24.48;47.50
62800;BME280;48842;51.046;13.796;2022-08-01T04:06:42;100069.88;;;24.48;47.43
62800;BME280;48842;51.046;13.796;2022-08-01T04:09:10;100070.72;;;24.48;47.31
62800;BME280;48842;51.046;13.796;2022-08-01T04:11:35;100066.25;;;24.49;47.42
62800;BME280;48842;51.046;13.796;2022-08-01T04:14:01;100076.09;;;24.48;47.51
62800;BME280;48842;51.046;13.796;2022-08-01T04:16:26;100079.72;;;24.47;47.58
62800;BME280;48842;51.046;13.796;2022-08-01T04:18:51;100082.34;;;24.49;47.73
62800;BME280;48842;51.046;13.796;2022-08-01T04:21:18;100080.59;;;24.48;47.50
62800;BME280;48842;51.046;13.796;2022-08-01T04:23:46;100083.19;;;24.49;47.74
62800;BME280;48842;51.046;13.796;2022-08-01T04:26:13;100092.16;;;24.48;47.65
62800;BME280;48842;51.046;13.796;2022-08-01T04:28:41;100091.22;;;24.49;47.63
62800;BME280;48842;51.046;13.796;2022-08-01T04:31:08;100092.94;;;24.50;47.74
62800;BME280;48842;51.046;13.796;2022-08-01T04:33:34;100097.50;;;24.48;47.55
62800;BME280;48842;51.046;13.796;2022-08-01T04:36:01;100089.56;;;24.47;47.50
62800;BME280;48842;51.046;13.796;2022-08-01T04:38:28;100092.34;;;24.45;47.41
62800;BME280;48842;51.046;13.796;2022-08-01T04:40:54;100089.66;;;24.45;47.33
62800;BME280;48842;51.046;13.796;2022-08-01T04:43:20;100090.69;;;24.43;47.55
62800;BME280;48842;51.046;13.796;2022-08-01T04:45:47;100094.34;;;24.42;47.53
62800;BME280;48842;51.046;13.796;2022-08-01T04:48:13;100091.59;;;24.43;47.39
62800;BME280;48842;51.046;13.796;2022-08-01T04:50:40;100098.72;;;24.43;47.54
62800;BME280;48842;51.046;13.796;2022-08-01T04:53:12;100100.47;;;24.44;47.44
62800;BME280;48842;51.046;13.796;2022-08-01T04:55:38;100108.41;;;24.45;47.35
62800;BME280;48842;51.046;13.796;2022-08-01T04:58:03;100106.44;;;24.49;47.37
62800;BME280;48842;51.046;13.796;2022-08-01T05:00:29;100097.34;;;24.51;47.17
62800;BME280;48842;51.046;13.796;2022-08-01T05:02:54;100108.84;;;24.53;47.12
62800;BME280;48842;51.046;13.796;2022-08-01T05:05:19;100106.16;;;24.53;47.55
62800;BME280;48842;51.046;13.796;2022-08-01T05:07:45;100109.97;;;24.49;48.03
62800;BME280;48842;51.046;13.796;2022-08-01T05:10:11;100111.84;;;24.47;48.18
62800;BME280;48842;51.046;13.796;2022-08-01T05:12:36;100108.41;;;24.45;48.83
62800;BME280;48842;51.046;13.796;2022-08-01T05:15:02;100115.88;;;24.40;49.31
62800;BME280;48842;51.046;13.796;2022-08-01T05:17:27;100117.75;;;24.38;49.17
62800;BME280;48842;51.046;13.796;2022-08-01T05:19:52;100114.63;;;24.30;49.75
62800;BME280;48842;51.046;13.796;2022-08-01T05:22:17;100128.19;;;24.27;49.77
62800;BME280;48842;51.046;13.796;2022-08-01T05:24:43;100125.28;;;24.15;51.55
62800;BME280;48842;51.046;13.796;2022-08-01T05:27:08;100126.41;;;24.11;52.04
62800;BME280;48842;51.046;13.796;2022-08-01T05:29:34;100123.28;;;24.03;52.55
62800;BME280;48842;51.046;13.796;2022-08-01T05:32:00;100135.44;;;23.93;53.18
62800;BME280;48842;51.046;13.796;2022-08-01T05:34:26;100132.38;;;23.83;53.35
62800;BME280;48842;51.046;13.796;2022-08-01T05:36:51;100132.50;;;23.64;54.20
62800;BME280;48842;51.046;13.796;2022-08-01T05:39:17;100134.25;;;23.65;54.17
62800;BME280;48842;51.046;13.796;2022-08-01T05:41:42;100129.75;;;23.65;54.32
62800;BME280;48842;51.046;13.796;2022-08-01T05:44:08;100120.69;;;23.68;54.41
62800;BME280;48842;51.046;13.796;2022-08-01T05:46:34;100124.94;;;23.72;54.55
62800;BME280;48842;51.046;13.796;2022-08-01T05:49:00;100129.28;;;23.75;54.50
62800;BME280;48842;51.046;13.796;2022-08-01T05:51:26;100121.16;;;23.76;54.52
62800;BME280;48842;51.046;13.796;2022-08-01T05:53:51;100126.50;;;23.76;54.49
62800;BME280;48842;51.046;13.796;2022-08-01T05:56:17;100127.00;;;23.83;54.42
62800;BME280;48842;51.046;13.796;2022-08-01T05:58:43;100135.84;;;23.85;54.37
62800;BME280;48842;51.046;13.796;2022-08-01T06:01:08;100124.91;;;23.90;54.19
62800;BME280;48842;51.046;13.796;2022-08-01T06:03:33;100128.34;;;23.92;54.12
62800;BME280;48842;51.046;13.796;2022-08-01T06:06:00;100137.78;;;23.99;53.91
62800;BME280;48842;51.046;13.796;2022-08-01T06:08:25;100139.34;;;24.03;54.08
62800;BME280;48842;51.046;13.796;2022-08-01T06:10:51;100141.25;;;24.01;53.98
62800;BME280;48842;51.046;13.796;2022-08-01T06:13:16;100143.38;;;23.94;54.19
62800;BME280;48842;51.046;13.796;2022-08-01T06:15:42;100140.78;;;23.93;53.92
62800;BME280;48842;51.046;13.796;2022-08-01T06:18:07;100137.09;;;23.95;53.34
62800;BME280;48842;51.046;13.796;2022-08-01T06:20:32;100146.06;;;23.94;53.49
62800;BME280;48842;51.046;13.796;2022-08-01T06:22:57;100154.81;;;23.98;53.67
62800;BME280;48842;51.046;13.796;2022-08-01T06:25:23;100146.94;;;23.95;53.80
62800;BME280;48842;51.046;13.796;2022-08-01T06:27:48;100152.28;;;23.95;53.95
62800;BME280;48842;51.046;13.796;2022-08-01T06:30:14;100157.78;;;23.92;54.26
62800;BME280;48842;51.046;13.796;2022-08-01T06:32:40;100160.56;;;23.90;54.09
62800;BME280;48842;51.046;13.796;2022-08-01T06:35:06;100160.84;;;23.84;54.73
62800;BME280;48842;51.046;13.796;2022-08-01T06:37:31;100158.44;;;23.79;54.45
62800;BME280;48842;51.046;13.796;2022-08-01T06:40:01;100161.88;;;23.81;54.57
62800;BME280;48842;51.046;13.796;2022-08-01T06:42:27;100165.34;;;23.83;54.37
62800;BME280;48842;51.046;13.796;2022-08-01T06:44:52;100168.66;;;23.88;54.27
62800;BME280;48842;51.046;13.796;2022-08-01T06:47:17;100170.41;;;23.90;54.65
62800;BME280;48842;51.046;13.796;2022-08-01T06:49:42;100173.38;;;23.83;54.84
62800;BME280;48842;51.046;13.796;2022-08-01T06:52:08;100181.28;;;23.86;54.67
62800;BME280;48842;51.046;13.796;2022-08-01T06:54:33;100170.56;;;23.86;54.92
62800;BME280;48842;51.046;13.796;2022-08-01T06:56:58;100176.59;;;23.90;54.95
62800;BME280;48842;51.046;13.796;2022-08-01T06:59:24;100176.91;;;23.84;55.15
62800;BME280;48842;51.046;13.796;2022-08-01T07:01:49;100182.13;;;23.87;55.30
62800;BME280;48842;51.046;13.796;2022-08-01T07:04:14;100187.31;;;23.90;55.48
62800;BME280;48842;51.046;13.796;2022-08-01T07:06:40;100187.47;;;23.87;57.03
62800;BME280;48842;51.046;13.796;2022-08-01T07:09:05;100190.38;;;23.82;57.96
62800;BME280;48842;51.046;13.796;2022-08-01T07:11:30;100201.25;;;23.79;58.08
62800;BME280;48842;51.046;13.796;2022-08-01T07:13:55;100206.75;;;23.76;58.46
62800;BME280;48842;51.046;13.796;2022-08-01T07:16:21;100205.28;;;23.70;59.30
62800;BME280;48842;51.046;13.796;2022-08-01T07:18:47;100206.78;;;23.59;59.80
62800;BME280;48842;51.046;13.796;2022-08-01T07:21:12;100207.56;;;23.43;60.76
62800;BME280;48842;51.046;13.796;2022-08-01T07:23:37;100211.44;;;23.38;60.98
62800;BME280;48842;51.046;13.796;2022-08-01T07:26:03;100210.75;;;23.34;61.28
62800;BME280;48842;51.046;13.796;2022-08-01T07:28:30;100207.34;;;23.30;60.98
62800;BME280;48842;51.046;13.796;2022-08-01T07:30:55;100212.78;;;23.29;61.37
62800;BME280;48842;51.046;13.796;2022-08-01T07:33:21;100208.22;;;23.31;61.50
62800;BME280;48842;51.046;13.796;2022-08-01T07:35:47;100208.84;;;23.36;61.55
62800;BME280;48842;51.046;13.796;2022-08-01T07:38:13;100205.06;;;23.40;61.66
62800;BME280;48842;51.046;13.796;2022-08-01T07:40:40;100210.25;;;23.43;61.76
62800;BME280;48842;51.046;13.796;2022-08-01T07:43:05;100202.88;;;23.48;61.59
62800;BME280;48842;51.046;13.796;2022-08-01T07:45:30;100211.84;;;23.47;61.80
62800;BME280;48842;51.046;13.796;2022-08-01T07:47:55;100213.94;;;23.41;62.34
62800;BME280;48842;51.046;13.796;2022-08-01T07:50:21;100209.63;;;23.38;61.86
62800;BME280;48842;51.046;13.796;2022-08-01T07:52:46;100208.84;;;23.36;62.12
62800;BME280;48842;51.046;13.796;2022-08-01T07:55:12;100214.03;;;23.39;61.83
62800;BME280;48842;51.046;13.796;2022-08-01T07:57:37;100209.41;;;23.43;61.85
62800;BME280;48842;51.046;13.796;2022-08-01T08:00:04;100203.19;;;23.42;62.45
62800;BME280;48842;51.046;13.796;2022-08-01T08:02:31;100207.41;;;23.46;62.14
62800;BME280;48842;51.046;13.796;2022-08-01T08:04:56;100204.53;;;23.51;62.09
62800;BME280;48842;51.046;13.796;2022-08-01T08:07:21;100203.41;;;23.55;62.44
62800;BME280;48842;51.046;13.796;2022-08-01T08:09:46;100195.44;;;23.53;62.12
62800;BME280;48842;51.046;13.796;2022-08-01T08:12:12;100199.69;;;23.58;61.98
62800;BME280;48842;51.046;13.796;2022-08-01T08:14:37;100205.69;;;23.63;61.86
62800;BME280;48842;51.046;13.796;2022-08-01T08:17:03;100206.28;;;23.68;62.27
62800;BME280;48842;51.046;13.796;2022-08-01T08:19:28;100212.75;;;23.64;61.95
62800;BME280;48842;51.046;13.796;2022-08-01T08:21:53;100200.50;;;23.60;61.98
62800;BME280;48842;51.046;13.796;2022-08-01T08:24:19;100206.63;;;23.62;61.81
62800;BME280;48842;51.046;13.796;2022-08-01T08:26:45;100200.19;;;23.66;61.87
62800;BME280;48842;51.046;13.796;2022-08-01T08:29:10;100202.34;;;23.75;61.79
62800;BME280;48842;51.046;13.796;2022-08-01T08:31:35;100204.53;;;23.84;61.72
62800;BME280;48842;51.046;13.796;2022-08-01T08:34:00;100207.69;;;23.93;61.16
62800;BME280;48842;51.046;13.796;2022-08-01T08:36:26;100202.19;;;23.96;61.09
62800;BME280;48842;51.046;13.796;2022-08-01T08:38:51;100202.88;;;23.99;60.69
62800;BME280;48842;51.046;13.796;2022-08-01T08:41:17;100200.97;;;24.01;60.90
62800;BME280;48842;51.046;13.796;2022-08-01T08:43:42;100197.88;;;24.09;60.41
62800;BME280;48842;51.046;13.796;2022-08-01T08:46:07;100206.72;;;24.11;60.31
62800;BME280;48842;51.046;13.796;2022-08-01T08:48:34;100199.44;;;24.13;60.04
62800;BME280;48842;51.046;13.796;2022-08-01T08:51:00;100206.53;;;24.14;59.88
62800;BME280;48842;51.046;13.796;2022-08-01T08:53:27;100208.59;;;24.09;59.76
62800;BME280;48842;51.046;13.796;2022-08-01T08:55:52;100209.28;;;24.13;59.74
62800;BME280;48842;51.046;13.796;2022-08-01T08:58:19;100203.78;;;24.16;59.60
62800;BME280;48842;51.046;13.796;2022-08-01T09:00:44;100204.13;;;24.26;59.52
62800;BME280;48842;51.046;13.796;2022-08-01T09:03:10;100199.19;;;24.34;59.23
62800;BME280;48842;51.046;13.796;2022-08-01T09:05:35;100200.22;;;24.47;59.08
62800;BME280;48842;51.046;13.796;2022-08-01T09:08:00;100202.41;;;24.56;58.62
62800;BME280;48842;51.046;13.796;2022-08-01T09:10:25;100202.09;;;24.63;58.33
62800;BME280;48842;51.046;13.796;2022-08-01T09:13:06;100203.47;;;24.70;57.90
62800;BME280;48842;51.046;13.796;2022-08-01T09:15:46;100207.78;;;24.72;57.15
62800;BME280;48842;51.046;13.796;2022-08-01T09:18:37;100208.56;;;24.74;56.58
62800;BME280;48842;51.046;13.796;2022-08-01T09:23:31;100200.25;;;24.79;56.58
62800;BME280;48842;51.046;13.796;2022-08-01T09:25:58;100200.06;;;24.82;56.26
62800;BME280;48842;51.046;13.796;2022-08-01T09:28:27;100196.81;;;24.77;56.42
62800;BME280;48842;51.046;13.796;2022-08-01T09:30:55;100200.34;;;24.78;56.13
62800;BME280;48842;51.046;13.796;2022-08-01T09:33:21;100204.84;;;24.77;55.99
62800;BME280;48842;51.046;13.796;2022-08-01T09:35:54;100205.94;;;24.89;55.52
62800;BME280;48842;51.046;13.796;2022-08-01T09:38:22;100200.13;;;24.97;55.03
62800;BME280;48842;51.046;13.796;2022-08-01T09:40:58;100194.34;;;25.04;54.80
62800;BME280;48842;51.046;13.796;2022-08-01T09:43:27;100200.19;;;25.11;54.93
62800;BME280;48842;51.046;13.796;2022-08-01T09:45:54;100195.25;;;25.19;54.86
62800;BME280;48842;51.046;13.796;2022-08-01T09:48:20;100203.75;;;25.26;54.86
62800;BME280;48842;51.046;13.796;2022-08-01T09:50:50;100200.03;;;25.29;54.26
62800;BME280;48842;51.046;13.796;2022-08-01T09:53:16;100192.63;;;25.34;54.15
62800;BME280;48842;51.046;13.796;2022-08-01T09:55:43;100194.25;;;25.36;54.01
62800;BME280;48842;51.046;13.796;2022-08-01T09:58:09;100191.50;;;25.38;54.04
62800;BME280;48842;51.046;13.796;2022-08-01T10:00:37;100200.41;;;25.38;53.22
62800;BME280;48842;51.046;13.796;2022-08-01T10:03:26;100197.25;;;25.46;52.48
62800;BME280;48842;51.046;13.796;2022-08-01T10:05:52;100189.19;;;25.46;51.88
62800;BME280;48842;51.046;13.796;2022-08-01T10:08:19;100198.13;;;25.47;51.72
62800;BME280;48842;51.046;13.796;2022-08-01T10:11:04;100192.63;;;25.34;51.07
62800;BME280;48842;51.046;13.796;2022-08-01T10:13:31;100186.13;;;25.38;51.43
62800;BME280;48842;51.046;13.796;2022-08-01T10:15:57;100180.94;;;25.49;51.52
62800;BME280;48842;51.046;13.796;2022-08-01T10:18:22;100187.47;;;25.59;51.50
62800;BME280;48842;51.046;13.796;2022-08-01T10:20:48;100189.44;;;25.72;51.64
62800;BME280;48842;51.046;13.796;2022-08-01T10:23:13;100190.56;;;25.82;50.98
62800;BME280;48842;51.046;13.796;2022-08-01T10:25:40;100190.94;;;25.90;51.23
62800;BME280;48842;51.046;13.796;2022-08-01T10:28:18;100197.84;;;25.94;50.28
62800;BME280;48842;51.046;13.796;2022-08-01T10:30:45;100194.81;;;25.86;50.24
62800;BME280;48842;51.046;13.796;2022-08-01T10:33:11;100189.13;;;25.91;50.17
62800;BME280;48842;51.046;13.796;2022-08-01T10:35:38;100186.75;;;25.86;50.07
62800;BME280;48842;51.046;13.796;2022-08-01T10:38:04;100187.78;;;25.98;50.27
62800;BME280;48842;51.046;13.796;2022-08-01T10:40:30;100185.69;;;26.03;50.54
62800;BME280;48842;51.046;13.796;2022-08-01T10:42:56;100195.94;;;25.96;49.91
62800;BME280;48842;51.046;13.796;2022-08-01T10:45:21;100193.00;;;26.01;49.98
62800;BME280;48842;51.046;13.796;2022-08-01T10:48:09;100192.91;;;26.03;49.94
62800;BME280;48842;51.046;13.796;2022-08-01T10:50:40;100188.09;;;26.08;50.31
62800;BME280;48842;51.046;13.796;2022-08-01T10:53:09;100203.34;;;26.07;50.17
62800;BME280;48842;51.046;13.796;2022-08-01T10:58:35;100202.16;;;25.97;50.13
62800;BME280;48842;51.046;13.796;2022-08-01T11:01:25;100201.88;;;25.87;50.10
62800;BME280;48842;51.046;13.796;2022-08-01T11:11:26;100207.53;;;25.68;50.52
62800;BME280;48842;51.046;13.796;2022-08-01T11:16:27;100204.09;;;25.81;50.89
62800;BME280;48842;51.046;13.796;2022-08-01T11:18:52;100193.38;;;25.95;50.86
62800;BME280;48842;51.046;13.796;2022-08-01T11:21:18;100192.16;;;26.01;50.46
62800;BME280;48842;51.046;13.796;2022-08-01T11:23:48;100190.50;;;26.12;50.63
62800;BME280;48842;51.046;13.796;2022-08-01T11:26:15;100202.94;;;26.13;49.90
62800;BME280;48842;51.046;13.796;2022-08-01T11:28:41;100189.25;;;26.18;50.07
62800;BME280;48842;51.046;13.796;2022-08-01T11:38:45;100187.28;;;26.49;49.36
62800;BME280;48842;51.046;13.796;2022-08-01T11:41:22;100180.22;;;26.61;49.12
62800;BME280;48842;51.046;13.796;2022-08-01T11:43:59;100185.13;;;26.69;48.10
62800;BME280;48842;51.046;13.796;2022-08-01T11:46:53;100173.63;;;26.79;48.07
62800;BME280;48842;51.046;13.796;2022-08-01T11:52:12;100188.28;;;26.75;47.67
62800;BME280;48842;51.046;13.796;2022-08-01T11:55:04;100192.22;;;26.70;47.72
62800;BME280;48842;51.046;13.796;2022-08-01T11:57:31;100212.69;;;26.58;48.91
62800;BME280;48842;51.046;13.796;2022-08-01T12:00:02;100205.31;;;26.47;51.00
62800;BME280;48842;51.046;13.796;2022-08-01T12:02:33;100210.31;;;26.39;51.89
62800;BME280;48842;51.046;13.796;2022-08-01T12:05:12;100211.28;;;26.23;53.38
62800;BME280;48842;51.046;13.796;2022-08-01T12:07:41;100213.44;;;26.18;53.31
62800;BME280;48842;51.046;13.796;2022-08-01T12:10:11;100217.81;;;26.19;53.38
62800;BME280;48842;51.046;13.796;2022-08-01T12:12:44;100213.44;;;26.18;53.19
62800;BME280;48842;51.046;13.796;2022-08-01T12:15:10;100214.94;;;26.22;53.19
62800;BME280;48842;51.046;13.796;2022-08-01T12:17:41;100210.78;;;26.31;53.48
62800;BME280;48842;51.046;13.796;2022-08-01T12:20:10;100204.75;;;26.42;53.37
62800;BME280;48842;51.046;13.796;2022-08-01T12:22:37;100222.00;;;26.52;52.88
62800;BME280;48842;51.046;13.796;2022-08-01T12:25:21;100215.16;;;26.61;51.78
62800;BME280;48842;51.046;13.796;2022-08-01T12:27:47;100205.94;;;26.65;51.70
62800;BME280;48842;51.046;13.796;2022-08-01T12:30:20;100210.84;;;26.73;50.98
62800;BME280;48842;51.046;13.796;2022-08-01T12:32:50;100209.78;;;26.75;50.06
62800;BME280;48842;51.046;13.796;2022-08-01T12:35:18;100216.47;;;26.82;49.58
62800;BME280;48842;51.046;13.796;2022-08-01T12:37:53;100207.44;;;26.83;48.94
62800;BME280;48842;51.046;13.796;2022-08-01T12:42:51;100204.25;;;26.91;48.78
62800;BME280;48842;51.046;13.796;2022-08-01T12:45:19;100205.56;;;26.98;48.24
62800;BME280;48842;51.046;13.796;2022-08-01T12:47:45;100195.34;;;27.04;48.35
62800;BME280;48842;51.046;13.796;2022-08-01T12:50:17;100198.25;;;27.00;46.79
62800;BME280;48842;51.046;13.796;2022-08-01T12:52:43;100192.69;;;27.16;47.54
62800;BME280;48842;51.046;13.796;2022-08-01T12:55:12;100198.66;;;27.34;47.43
62800;BME280;48842;51.046;13.796;2022-08-01T12:57:43;100199.25;;;27.52;46.13
62800;BME280;48842;51.046;13.796;2022-08-01T13:00:24;100191.69;;;27.45;45.52
62800;BME280;48842;51.046;13.796;2022-08-01T13:03:02;100200.75;;;27.44;45.67
62800;BME280;48842;51.046;13.796;2022-08-01T13:05:27;100198.94;;;27.70;45.37
62800;BME280;48842;51.046;13.796;2022-08-01T13:07:53;100208.06;;;28.06;44.05
62800;BME280;48842;51.046;13.796;2022-08-01T13:10:26;100190.56;;;28.37;43.19
62800;BME280;48842;51.046;13.796;2022-08-01T13:12:54;100192.78;;;28.81;42.43
62800;BME280;48842;51.046;13.796;2022-08-01T13:15:26;100196.72;;;29.12;41.55
62800;BME280;48842;51.046;13.796;2022-08-01T13:17:53;100194.63;;;29.16;40.75